createdAt,value
2016-10-31T00:01:56.529Z,8.82
2016-10-31T00:05:32.621Z,8.97
2016-10-31T00:09:10.059Z,8.92
2016-10-31T00:12:46.407Z,8.89
2016-10-31T00:16:23.426Z,8.66
2016-10-31T00:20:00.812Z,8.64
2016-10-31T00:23:37.997Z,8.79
2016-10-31T00:27:14.844Z,8.96
2016-10-31T00:30:51.543Z,9.03
2016-10-31T00:34:28.932Z,8.92
2016-10-31T00:38:05.547Z,8.89
2016-10-31T00:41:43.199Z,8.92
2016-10-31T00:45:19.659Z,8.66
2016-10-31T00:48:57.163Z,8.46
2016-10-31T00:52:33.681Z,8.66
2016-10-31T00:56:10.466Z,8.79
2016-10-31T00:59:47.520Z,8.63
2016-10-31T01:03:24.716Z,8.45
2016-10-31T01:07:01.706Z,8.68
2016-10-31T01:10:38.692Z,8.34
2016-10-31T01:14:15.863Z,8.03
2016-10-31T01:17:52.464Z,8.36
2016-10-31T01:21:41.016Z,8.41
2016-10-31T01:25:17.004Z,8.09
2016-10-31T01:28:52.800Z,8.28
2016-10-31T01:32:28.963Z,8.44
2016-10-31T01:36:05.080Z,8.31
2016-10-31T01:39:41.573Z,8.06
2016-10-31T01:43:23.683Z,7.93
2016-10-31T01:46:59.466Z,7.99
2016-10-31T01:54:14.137Z,7.31
2016-10-31T01:57:49.758Z,7.29
2016-10-31T02:01:26.203Z,7.56
2016-10-31T02:05:04.071Z,7.87
2016-10-31T02:08:40.910Z,7.84
2016-10-31T02:16:57.921Z,8.26
2016-10-31T02:20:34.367Z,8.28
2016-10-31T02:24:10.107Z,8.34
2016-10-31T02:27:26.435Z,8.44
2016-10-31T02:31:27.658Z,8.44
2016-10-31T02:35:04.086Z,8.39
2016-10-31T02:38:41.299Z,8.42
2016-10-31T02:42:17.392Z,8.36
2016-10-31T02:45:54.744Z,8.32
2016-10-31T02:49:31.400Z,8.42
2016-10-31T02:53:08.704Z,8.44
2016-10-31T02:56:45.178Z,8.45
2016-10-31T03:00:22.626Z,8.27
2016-10-31T03:03:59.387Z,8.59
2016-10-31T03:07:36.818Z,8.56
2016-10-31T03:11:13.250Z,8.45
2016-10-31T03:14:50.489Z,8.64
2016-10-31T03:18:28.072Z,8.6
2016-10-31T03:22:04.186Z,8.44
2016-10-31T03:25:41.711Z,8.36
2016-10-31T03:29:18.133Z,8.31
2016-10-31T03:32:55.759Z,8.13
2016-10-31T03:36:32.950Z,8.27
2016-10-31T03:40:10.107Z,8.16
2016-10-31T03:43:46.453Z,7.96
2016-10-31T03:47:23.144Z,7.8
2016-10-31T03:51:00.716Z,7.85
2016-10-31T03:54:37.126Z,7.74
2016-10-31T03:58:14.405Z,7.66
2016-10-31T04:01:51.962Z,7.59
2016-10-31T04:05:28.043Z,7.61
2016-10-31T04:09:05.547Z,7.53
2016-10-31T04:12:42.584Z,7.64
2016-10-31T04:16:19.398Z,7.59
2016-10-31T04:19:56.364Z,7.67
2016-10-31T04:23:34.120Z,7.83
2016-10-31T04:27:10.247Z,7.84
2016-10-31T04:30:47.556Z,8.08
2016-10-31T04:34:24.192Z,8.09
2016-10-31T04:38:04.381Z,8.02
2016-10-31T04:41:40.487Z,8.06
2016-10-31T04:45:17.091Z,7.91
2016-10-31T04:48:54.636Z,8.01
2016-10-31T04:52:31.237Z,7.98
2016-10-31T04:56:08.751Z,7.95
2016-10-31T04:59:45.182Z,7.99
2016-10-31T05:03:22.769Z,8.02
2016-10-31T05:06:58.961Z,8.03
2016-10-31T05:14:20.286Z,8.08
2016-10-31T05:17:56.225Z,8.13
2016-10-31T05:21:32.796Z,8.16
2016-10-31T05:25:32.621Z,8.13
2016-10-31T05:29:10.222Z,8.11
2016-10-31T05:32:50.456Z,8.61
2016-10-31T05:36:26.528Z,8.77
2016-10-31T05:40:03.465Z,8.81
2016-10-31T05:43:40.712Z,8.89
2016-10-31T05:47:17.132Z,8.95
2016-10-31T05:50:54.137Z,9.05
2016-10-31T05:54:31.404Z,8.97
2016-10-31T05:58:07.970Z,9.11
2016-10-31T06:01:45.731Z,9.19
2016-10-31T06:05:21.948Z,9.12
2016-10-31T06:08:59.274Z,9.13
2016-10-31T06:12:36.002Z,9.09
2016-10-31T06:16:12.924Z,9.21
2016-10-31T06:19:50.466Z,9.16
2016-10-31T06:28:11.482Z,9.24
2016-10-31T06:31:47.367Z,9.16
2016-10-31T06:35:23.135Z,9.33
2016-10-31T06:38:58.696Z,9.37
2016-10-31T06:42:35.027Z,9.34
2016-10-31T06:46:42.587Z,9.36
2016-10-31T06:50:18.892Z,9.42
2016-10-31T06:53:56.175Z,9.39
2016-10-31T06:57:33.433Z,9.45
2016-10-31T07:01:10.134Z,9.54
2016-10-31T07:04:47.470Z,9.51
2016-10-31T07:08:23.940Z,9.42
2016-10-31T07:12:01.308Z,9.51
2016-10-31T07:15:38.082Z,9.48
2016-10-31T07:19:15.669Z,9.63
2016-10-31T07:22:51.950Z,9.62
2016-10-31T07:26:29.183Z,9.64
2016-10-31T07:30:05.909Z,9.77
2016-10-31T07:33:43.090Z,9.87
2016-10-31T07:37:20.119Z,9.82
2016-10-31T07:40:57.397Z,10.03
2016-10-31T07:44:33.938Z,9.91
2016-10-31T07:48:11.190Z,10.07
2016-10-31T07:51:47.790Z,10.17
2016-10-31T07:55:24.998Z,10.25
2016-10-31T07:59:02.278Z,10.24
2016-10-31T08:02:39.621Z,10.3
2016-10-31T08:06:17.256Z,10.39
2016-10-31T08:09:53.379Z,10.49
2016-10-31T08:13:29.793Z,10.62
2016-10-31T08:17:07.142Z,10.71
2016-10-31T08:20:43.846Z,10.8
2016-10-31T08:24:21.171Z,10.97
2016-10-31T08:27:57.873Z,11
2016-10-31T08:31:35.074Z,11.19
2016-10-31T08:35:12.236Z,11.22
2016-10-31T08:38:48.716Z,11.31
2016-10-31T08:42:25.787Z,11.43
2016-10-31T08:46:03.427Z,11.45
2016-10-31T08:49:39.900Z,11.62
2016-10-31T08:53:17.101Z,11.62
2016-10-31T08:56:54.710Z,11.85
2016-10-31T09:00:31.119Z,11.74
2016-10-31T09:04:08.730Z,11.81
2016-10-31T09:07:45.467Z,11.97
2016-10-31T09:11:23.313Z,12.12
2016-10-31T09:14:59.548Z,12.15
2016-10-31T09:18:36.983Z,12.21
2016-10-31T09:22:12.851Z,12.26
2016-10-31T09:25:50.069Z,12.36
2016-10-31T09:29:27.062Z,12.55
2016-10-31T09:33:04.288Z,12.63
2016-10-31T09:36:41.589Z,12.66
2016-10-31T09:40:17.704Z,12.91
2016-10-31T09:43:54.722Z,13.02
2016-10-31T09:47:32.481Z,12.9
2016-10-31T09:51:08.669Z,12.93
2016-10-31T09:54:46.119Z,12.99
2016-10-31T09:58:23.394Z,13.08
2016-10-31T10:01:59.838Z,13.12
2016-10-31T10:05:36.844Z,13.12
2016-10-31T10:09:14.848Z,13.37
2016-10-31T10:12:51.189Z,13.26
2016-10-31T10:16:28.740Z,13.24
2016-10-31T10:20:37.596Z,13.5
2016-10-31T10:24:13.154Z,13.54
2016-10-31T10:27:49.772Z,13.5
2016-10-31T10:31:27.048Z,13.52
2016-10-31T10:35:04.524Z,13.62
2016-10-31T10:38:40.601Z,13.61
2016-10-31T10:42:18.323Z,13.71
2016-10-31T10:45:54.658Z,13.7
2016-10-31T10:49:31.610Z,13.93
2016-10-31T10:58:22.056Z,13.89
2016-10-31T11:01:58.359Z,13.83
2016-10-31T11:05:34.039Z,13.75
2016-10-31T11:09:09.942Z,14
2016-10-31T11:17:28.873Z,14.07
2016-10-31T11:21:04.771Z,14.03
2016-10-31T11:24:40.653Z,14.07
2016-10-31T11:28:17.047Z,14.05
2016-10-31T11:31:54.311Z,14.11
2016-10-31T11:35:30.620Z,14.07
2016-10-31T11:39:08.101Z,14.18
2016-10-31T11:42:45.048Z,14.15
2016-10-31T11:46:21.763Z,14.23
2016-10-31T11:49:58.506Z,14.36
2016-10-31T11:53:35.515Z,14.38
2016-10-31T11:57:13.179Z,14.66
2016-10-31T12:00:50.222Z,14.56
2016-10-31T12:04:26.511Z,14.48
2016-10-31T12:08:03.936Z,14.41
2016-10-31T12:11:40.794Z,14.62
2016-10-31T12:15:18.258Z,14.62
2016-10-31T12:18:55.500Z,14.53
2016-10-31T12:22:31.589Z,14.56
2016-10-31T12:26:09.242Z,14.68
2016-10-31T12:29:45.683Z,14.66
2016-10-31T12:33:23.040Z,14.67
2016-10-31T12:37:00.069Z,14.7
2016-10-31T12:40:36.748Z,14.7
2016-10-31T12:44:13.990Z,14.87
2016-10-31T12:47:50.748Z,15.02
2016-10-31T12:51:27.829Z,15.05
2016-10-31T12:55:05.448Z,14.99
2016-10-31T12:58:42.345Z,14.97
2016-10-31T13:02:19.168Z,14.93
2016-10-31T13:05:55.667Z,15.04
2016-10-31T13:09:32.397Z,14.93
2016-10-31T13:13:09.695Z,15.14
2016-10-31T13:16:46.977Z,15.14
2016-10-31T13:20:23.970Z,15.08
2016-10-31T13:24:00.908Z,14.99
2016-10-31T13:28:33.751Z,15.1
2016-10-31T13:31:50.376Z,15.17
2016-10-31T13:35:25.980Z,15.25
2016-10-31T13:39:02.351Z,15.32
2016-10-31T13:42:37.961Z,15.14
2016-10-31T13:46:14.286Z,14.99
2016-10-31T13:49:50.461Z,15.04
2016-10-31T13:53:27.823Z,15.23
2016-10-31T13:57:04.788Z,15.23
2016-10-31T14:00:41.751Z,15.05
2016-10-31T14:04:19.990Z,15.14
2016-10-31T14:07:55.520Z,15.08
2016-10-31T14:11:32.777Z,15.14
2016-10-31T14:15:09.522Z,15.12
2016-10-31T14:18:46.817Z,15.14
2016-10-31T14:22:24.181Z,15.15
2016-10-31T14:26:00.962Z,15.18
2016-10-31T14:29:37.495Z,15.04
2016-10-31T14:33:14.862Z,15.1
2016-10-31T14:36:52.154Z,15.14
2016-10-31T14:40:28.400Z,15.19
2016-10-31T14:44:05.482Z,15.07
2016-10-31T14:47:42.468Z,15.07
2016-10-31T14:51:19.528Z,15.07
2016-10-31T14:54:56.560Z,15.11
2016-10-31T14:58:33.535Z,15.04
2016-10-31T15:02:10.923Z,15.04
2016-10-31T15:05:47.369Z,15.1
2016-10-31T15:09:24.648Z,15.15
2016-10-31T15:13:29.555Z,15.04
2016-10-31T15:17:08.564Z,15.08
2016-10-31T15:20:46.297Z,15.04
2016-10-31T15:24:23.596Z,14.99
2016-10-31T15:28:00.889Z,15
2016-10-31T15:31:38.467Z,14.96
2016-10-31T15:35:14.726Z,14.96
2016-10-31T15:38:52.321Z,14.96
2016-10-31T15:42:29.803Z,14.85
2016-10-31T15:46:06.595Z,14.68
2016-10-31T15:50:19.129Z,22
2016-10-31T16:01:06.151Z,23.48
2016-10-31T16:04:21.525Z,23.64
2016-10-31T16:06:14.415Z,21.75
2016-10-31T16:09:55.519Z,15.81
2016-10-31T16:13:34.693Z,14.41
2016-10-31T16:17:10.973Z,14.11
2016-10-31T16:20:42.507Z,14.04
2016-10-31T16:24:19.751Z,14
2016-10-31T16:27:56.612Z,13.6
2016-10-31T16:32:06.569Z,13.17
2016-10-31T16:35:42.865Z,12.84
2016-10-31T16:39:20.089Z,12.98
2016-10-31T16:42:57.144Z,13.05
2016-10-31T16:46:33.843Z,13.21
2016-10-31T16:50:09.680Z,13.06
2016-10-31T16:53:46.335Z,12.98
2016-10-31T16:57:23.841Z,12.58
2016-10-31T17:01:00.870Z,12.63
2016-10-31T17:04:37.477Z,12.3
2016-10-31T17:08:14.185Z,11.85
2016-10-31T17:11:51.957Z,11.99
2016-10-31T17:15:29.039Z,11.83
2016-10-31T17:19:05.291Z,11.56
2016-10-31T17:22:42.503Z,11.55
2016-10-31T17:26:19.413Z,11.35
2016-10-31T17:29:57.737Z,11.3
2016-10-31T17:33:35.560Z,11.19
2016-10-31T17:37:11.658Z,11.07
2016-10-31T17:40:52.202Z,10.79
2016-10-31T17:44:51.860Z,10.65
2016-10-31T17:48:34.131Z,10.67
2016-10-31T17:52:11.858Z,10.68
2016-10-31T17:55:49.664Z,10.68
2016-10-31T17:59:29.773Z,10.75
2016-10-31T18:03:06.897Z,10.51
2016-10-31T18:06:42.901Z,10.38
2016-10-31T18:10:14.085Z,10.49
2016-10-31T18:13:52.965Z,10.58
2016-10-31T18:17:32.458Z,10.53
2016-10-31T18:21:08.386Z,10.21
2016-10-31T18:24:48.074Z,10.18
2016-10-31T18:28:25.510Z,10.09
2016-10-31T18:32:03.628Z,9.99
2016-10-31T18:36:05.603Z,9.92
2016-10-31T18:39:43.532Z,9.95
2016-10-31T18:43:21.273Z,9.77
2016-10-31T18:46:59.068Z,9.81
2016-10-31T18:51:08.497Z,9.69
2016-10-31T18:54:45.020Z,9.66
2016-10-31T18:58:21.457Z,9.7
2016-10-31T19:01:58.330Z,9.56
2016-10-31T19:05:35.100Z,9.54
2016-10-31T19:09:11.547Z,9.48
2016-10-31T19:12:48.108Z,9.34
2016-10-31T19:16:24.571Z,9.39
2016-10-31T19:20:00.956Z,9.26
2016-10-31T19:23:36.952Z,9.29
2016-10-31T19:27:18.844Z,9.13
2016-10-31T19:30:58.324Z,9.09
2016-10-31T19:34:57.972Z,9.02
2016-10-31T19:38:35.329Z,9.13
2016-10-31T19:42:12.844Z,9.15
2016-10-31T19:45:49.925Z,9.36
2016-10-31T19:49:27.633Z,9.22
2016-10-31T19:53:05.373Z,9.45
2016-10-31T19:56:41.725Z,9.09
2016-10-31T20:00:18.437Z,8.97
2016-10-31T20:03:55.358Z,8.82
2016-10-31T20:07:31.502Z,8.79
2016-10-31T20:11:08.265Z,8.9
2016-10-31T20:14:45.280Z,8.87
2016-10-31T20:18:02.218Z,9.08
2016-10-31T20:21:38.737Z,8.74
2016-10-31T20:25:15.614Z,8.71
2016-10-31T20:28:51.949Z,8.63
2016-10-31T20:32:28.194Z,9.26
2016-10-31T20:36:04.996Z,9.31
2016-10-31T20:39:40.861Z,9.59
2016-10-31T20:43:17.606Z,9.73
2016-10-31T20:46:53.539Z,9.39
2016-10-31T20:50:29.912Z,9.54
2016-10-31T20:54:05.983Z,9.44
2016-10-31T20:57:42.380Z,9.42
2016-10-31T21:01:19.192Z,9.63
2016-10-31T21:04:56.185Z,9.69
2016-10-31T21:08:33.110Z,9.85
2016-10-31T21:12:10.899Z,9.88
2016-10-31T21:15:47.059Z,9.84
2016-10-31T21:19:23.938Z,9.9
2016-10-31T21:23:01.508Z,9.87
2016-10-31T21:26:38.243Z,9.92
2016-10-31T21:30:15.355Z,9.92
2016-10-31T21:33:52.214Z,9.99
2016-10-31T21:37:29.820Z,10.02
2016-10-31T21:41:06.422Z,9.95
2016-10-31T21:44:43.148Z,9.95
2016-10-31T21:48:20.246Z,9.94
2016-10-31T21:51:57.706Z,9.76
2016-10-31T21:55:35.594Z,9.64
2016-10-31T21:59:11.915Z,9.63
2016-10-31T22:02:54.840Z,9.66
2016-10-31T22:06:31.244Z,9.76
2016-10-31T22:10:33.859Z,9.63
2016-10-31T22:14:12.129Z,9.66
2016-10-31T22:17:48.505Z,9.66
2016-10-31T22:21:24.744Z,9.67
2016-10-31T22:25:02.925Z,9.63
2016-10-31T22:32:18.674Z,9.54
2016-10-31T22:35:55.000Z,9.48
2016-10-31T22:39:31.279Z,9.48
2016-10-31T22:43:08.258Z,9.47
2016-10-31T22:46:47.907Z,9.39
2016-10-31T22:50:25.641Z,9.31
2016-10-31T22:54:02.488Z,9.37
2016-10-31T22:57:40.766Z,9.4
2016-10-31T23:01:18.230Z,9.33
2016-10-31T23:04:54.457Z,9.27
2016-10-31T23:08:30.933Z,9.19
2016-10-31T23:12:08.907Z,9.19
2016-10-31T23:15:45.691Z,9.13
2016-10-31T23:19:23.033Z,8.97
2016-10-31T23:23:00.992Z,9.03
2016-10-31T23:26:37.696Z,9.02
2016-10-31T23:30:14.189Z,9.08
2016-10-31T23:33:50.611Z,9.11
2016-10-31T23:37:26.987Z,9.03
2016-10-31T23:41:03.477Z,9.09
2016-10-31T23:44:40.987Z,9.13
2016-10-31T23:48:17.182Z,9.12
2016-10-31T23:51:54.952Z,9.03
2016-10-31T23:55:30.898Z,8.97
2016-10-31T23:59:13.954Z,9
